Time;durP1;ratioP1;P1;durP2;ratioP2;P2;SDS_P1;SDS_P2;PMS_P1;PMS_P2;Temp;Humidity;BMP_temperature;BMP_pressure;BME280_temperature;BME280_humidity;BME280_pressure;Samples;Min_cycle;Max_cycle;Signal;HPM_P1;HPM_P2
2021/08/12 00:00:52;;;;;;;6.75;5.70;;;;;;;17.35;69.73;96076.50;5116962;27;20585;-75
2021/08/12 00:03:17;;;;;;;5.88;5.28;;;;;;;17.33;69.85;96078.50;5116543;27;20171;-76
2021/08/12 00:05:42;;;;;;;6.90;5.28;;;;;;;17.31;70.02;96074.38;5116875;27;20195;-75
2021/08/12 00:08:08;;;;;;;6.93;5.07;;;;;;;17.27;69.86;96080.00;5135165;27;20210;-76
2021/08/12 00:10:33;;;;;;;5.57;4.93;;;;;;;17.22;70.22;96087.56;5135058;27;20172;-76
2021/08/12 00:12:58;;;;;;;7.90;5.30;;;;;;;17.21;70.16;96080.69;5133865;27;20163;-76
2021/08/12 00:15:23;;;;;;;6.38;5.30;;;;;;;17.23;70.08;96084.00;5116438;27;20704;-76
2021/08/12 00:17:49;;;;;;;5.95;5.40;;;;;;;17.21;69.88;96085.94;5099515;27;20179;-74
2021/08/12 00:20:15;;;;;;;6.55;5.55;;;;;;;17.16;70.22;96083.03;5116555;27;20240;-76
2021/08/12 00:22:40;;;;;;;6.90;5.72;;;;;;;17.13;70.46;96080.75;5116459;27;20630;-76
2021/08/12 00:25:06;;;;;;;6.47;5.43;;;;;;;17.12;70.38;96079.13;5116303;27;20179;-76
2021/08/12 00:27:31;;;;;;;7.03;5.47;;;;;;;17.05;70.70;96078.22;5116322;27;20607;-76
2021/08/12 00:29:56;;;;;;;7.90;5.43;;;;;;;17.01;70.70;96068.22;5099205;27;20179;-76
2021/08/12 00:32:22;;;;;;;6.18;5.55;;;;;;;16.99;70.69;96065.78;5116164;27;20178;-76
2021/08/12 00:34:47;;;;;;;6.30;5.00;;;;;;;16.94;70.70;96058.41;5134568;27;20219;-76
2021/08/12 00:37:12;;;;;;;7.22;5.75;;;;;;;16.89;70.87;96066.00;5134519;27;20234;-76
2021/08/12 00:39:38;;;;;;;5.85;5.00;;;;;;;16.92;71.09;96059.59;5116221;27;20216;-76
2021/08/12 00:42:03;;;;;;;5.35;4.68;;;;;;;16.85;71.40;96054.22;5095288;28;20665;-76
2021/08/12 00:44:29;;;;;;;6.93;5.50;;;;;;;16.84;71.40;96054.41;5113976;28;20232;-75
2021/08/12 00:46:54;;;;;;;6.80;5.10;;;;;;;16.88;71.15;96059.13;5114184;28;20282;-76
2021/08/12 00:49:19;;;;;;;8.40;5.85;;;;;;;16.88;71.17;96053.06;5112884;28;20171;-76
2021/08/12 00:51:46;;;;;;;5.50;5.00;;;;;;;16.84;71.16;96054.41;5112519;28;20206;-76
2021/08/12 00:54:11;;;;;;;9.20;5.13;;;;;;;16.85;71.07;96056.03;5095723;28;20210;-76
2021/08/12 00:56:37;;;;;;;6.22;5.63;;;;;;;16.83;70.83;96052.78;5111834;27;20207;-76
2021/08/12 00:59:02;;;;;;;6.97;5.95;;;;;;;16.82;70.94;96059.81;5134290;27;20193;-76
2021/08/12 01:01:27;;;;;;;7.03;5.50;;;;;;;16.85;70.98;96056.03;5098619;27;20179;-76
2021/08/12 01:04:00;;;;;;;5.80;4.85;;;;;;;16.90;70.82;96061.59;5115866;27;20171;-76
2021/08/12 01:06:31;;;;;;;9.00;6.18;;;;;;;16.87;70.91;96057.50;5134408;27;20199;-76
2021/08/12 01:09:21;;;;;;;7.97;5.57;;;;;;;16.89;70.80;96059.97;5118310;27;20187;-75
2021/08/12 01:11:51;;;;;;;6.72;5.72;;;;;;;16.90;70.77;96061.59;5120446;27;20289;-76
2021/08/12 01:14:28;;;;;;;7.20;5.80;;;;;;;16.92;70.74;96065.66;5115914;27;20243;-75
2021/08/12 01:17:03;;;;;;;9.00;6.05;;;;;;;16.93;70.79;96067.28;5121043;27;20198;-76
2021/08/12 01:20:02;;;;;;;9.93;5.47;;;;;;;16.95;70.69;96061.84;5118550;27;20721;-76
2021/08/12 01:22:28;;;;;;;5.82;5.22;;;;;;;16.94;70.64;96068.09;5099318;27;20514;-76
2021/08/12 01:24:56;;;;;;;6.63;5.63;;;;;;;16.90;70.99;96062.41;5098010;27;20196;-76
2021/08/12 01:27:25;;;;;;;6.68;5.97;;;;;;;16.94;70.96;96065.47;5115241;27;20187;-76
2021/08/12 01:30:12;;;;;;;5.97;5.40;;;;;;;16.93;70.99;96063.84;5133456;27;20263;-76
2021/08/12 01:32:48;;;;;;;6.65;5.40;;;;;;;16.90;70.79;96066.84;5115068;27;20177;-76
2021/08/12 01:35:17;;;;;;;5.78;5.18;;;;;;;16.90;71.01;96057.16;5114970;27;20199;-76
2021/08/12 01:37:49;;;;;;;6.07;5.15;;;;;;;16.94;70.88;96055.00;5115055;27;20823;-76
2021/08/12 01:40:15;;;;;;;6.13;5.30;;;;;;;16.83;70.69;96058.03;5114931;27;20182;-76
2021/08/12 01:42:42;;;;;;;8.57;5.47;;;;;;;16.81;70.98;96057.38;5133112;27;20171;-75
2021/08/12 01:45:08;;;;;;;6.20;5.60;;;;;;;16.78;71.15;96053.28;5114908;27;20163;-76
2021/08/12 01:47:34;;;;;;;7.70;5.72;;;;;;;16.80;71.13;96050.50;5097803;27;20654;-76
2021/08/12 01:50:03;;;;;;;6.95;5.47;;;;;;;16.85;70.96;96048.16;5097784;27;20182;-76
2021/08/12 01:52:31;;;;;;;8.63;5.80;;;;;;;16.87;70.85;96056.66;5114653;27;20650;-76
2021/08/12 01:54:57;;;;;;;8.68;5.22;;;;;;;16.89;70.93;96062.56;5114771;27;20199;-75
2021/08/12 01:57:23;;;;;;;6.18;5.57;;;;;;;16.89;70.48;96055.53;5114672;27;20260;-75
2021/08/12 01:59:49;;;;;;;6.22;5.63;;;;;;;16.90;70.92;96051.91;5097541;27;20178;-76
2021/08/12 02:02:15;;;;;;;6.53;5.40;;;;;;;16.93;70.92;96050.72;5114500;27;20163;-76
2021/08/12 02:04:41;;;;;;;6.10;5.50;;;;;;;16.94;70.56;96045.31;5114592;27;20227;-76
2021/08/12 02:07:06;;;;;;;6.57;5.30;;;;;;;16.96;70.64;96047.75;5114592;27;20278;-76
2021/08/12 02:09:34;;;;;;;7.72;5.13;;;;;;;16.95;70.50;96039.06;5114521;27;20163;-74
2021/08/12 02:11:59;;;;;;;5.93;5.32;;;;;;;16.97;70.25;96041.53;5114232;27;20167;-73
2021/08/12 02:14:24;;;;;;;7.78;5.28;;;;;;;17.00;70.15;96033.31;5114300;27;20285;-74
2021/08/12 02:16:50;;;;;;;7.25;5.65;;;;;;;16.99;70.27;96034.31;5114359;27;20183;-74
2021/08/12 02:19:15;;;;;;;7.32;5.10;;;;;;;17.04;70.07;96037.19;5132708;27;20182;-73
2021/08/12 02:21:47;;;;;;;7.50;5.28;;;;;;;16.98;70.13;96038.72;5132463;27;20343;-75
2021/08/12 02:24:20;;;;;;;6.90;5.20;;;;;;;16.99;70.16;96048.22;5097205;28;20175;-76
2021/08/12 02:26:56;;;;;;;6.03;5.35;;;;;;;16.95;70.64;96040.88;5114305;28;20237;-75
2021/08/12 02:29:21;;;;;;;6.72;5.68;;;;;;;16.93;70.70;96040.25;5114333;28;20198;-75
2021/08/12 02:31:47;;;;;;;6.63;5.45;;;;;;;16.93;70.65;96045.50;5114072;28;20657;-75
2021/08/12 02:34:15;;;;;;;9.18;5.70;;;;;;;16.89;70.74;96031.09;5114167;28;20195;-74
2021/08/12 02:36:42;;;;;;;8.25;5.43;;;;;;;16.86;70.78;96032.25;5115879;27;20191;-75
2021/08/12 02:39:08;;;;;;;6.38;5.53;;;;;;;16.78;71.22;96027.06;5118431;27;20177;-75
2021/08/12 02:41:35;;;;;;;7.15;5.60;;;;;;;16.76;71.16;96038.72;5118178;27;20193;-75
2021/08/12 02:44:00;;;;;;;8.60;5.68;;;;;;;16.66;71.50;96029.22;5118432;27;20192;-73
2021/08/12 02:46:26;;;;;;;7.40;5.30;;;;;;;16.59;71.59;96019.59;5101182;27;20194;-75
2021/08/12 02:48:53;;;;;;;8.13;6.00;;;;;;;16.51;71.99;96017.03;5118261;27;20177;-74
2021/08/12 02:51:18;;;;;;;8.00;5.53;;;;;;;16.48;72.00;96022.63;5117793;27;20599;-74
2021/08/12 02:53:44;;;;;;;6.25;5.30;;;;;;;16.45;72.26;96023.81;5118091;27;20172;-75
2021/08/12 02:56:11;;;;;;;7.47;5.47;;;;;;;16.49;71.94;96021.63;5117892;27;20339;-75
2021/08/12 02:58:38;;;;;;;5.72;5.13;;;;;;;16.56;71.73;96015.53;5118077;27;20202;-74
2021/08/12 03:01:04;;;;;;;6.30;5.30;;;;;;;16.51;71.94;96019.66;5117994;27;20167;-74
2021/08/12 03:03:30;;;;;;;8.07;5.97;;;;;;;16.45;71.91;96018.56;5117532;27;20224;-74
2021/08/12 03:05:56;;;;;;;7.75;5.45;;;;;;;16.41;72.09;96019.88;5100728;27;20243;-74
2021/08/12 03:08:21;;;;;;;10.10;5.65;;;;;;;16.37;72.11;96014.19;5100808;27;20206;-74
2021/08/12 03:10:46;;;;;;;5.53;4.72;;;;;;;16.35;72.24;96017.97;5136228;27;20195;-75
2021/08/12 03:13:12;;;;;;;6.85;5.28;;;;;;;16.43;71.94;96013.50;5117571;27;20178;-74
2021/08/12 03:15:38;;;;;;;9.02;6.00;;;;;;;16.37;72.17;96015.97;5100644;27;20203;-74
2021/08/12 03:18:04;;;;;;;9.38;5.90;;;;;;;16.32;72.40;96010.44;5117624;27;20175;-74
2021/08/12 03:20:30;;;;;;;6.68;5.45;;;;;;;16.34;72.21;96009.28;5117722;27;20171;-74
2021/08/12 03:22:57;;;;;;;8.45;5.43;;;;;;;16.31;72.10;96012.22;5117298;27;20255;-74
2021/08/12 03:25:23;;;;;;;6.88;5.50;;;;;;;16.36;72.12;96016.97;5117487;27;20178;-75
2021/08/12 03:27:49;;;;;;;6.05;5.20;;;;;;;16.37;72.19;96010.75;5117688;27;20174;-74
2021/08/12 03:30:14;;;;;;;7.05;5.93;;;;;;;16.44;71.97;96016.94;5117496;27;20167;-75
2021/08/12 03:32:39;;;;;;;10.77;6.43;;;;;;;16.44;71.89;96016.94;5100070;27;20170;-74
2021/08/12 03:35:05;;;;;;;9.48;6.53;;;;;;;16.52;71.67;96018.66;5100358;27;20207;-75
2021/08/12 03:37:31;;;;;;;11.75;6.07;;;;;;;16.48;71.69;96018.19;5100300;27;20187;-75
2021/08/12 03:39:56;;;;;;;9.63;5.97;;;;;;;16.48;71.50;96020.81;5117340;27;20268;-75
2021/08/12 03:42:22;;;;;;;7.72;5.43;;;;;;;16.53;71.35;96018.50;5117136;27;20196;-73
2021/08/12 03:44:48;;;;;;;6.63;5.13;;;;;;;16.56;71.32;96023.41;5117258;27;20163;-73
2021/08/12 03:47:13;;;;;;;7.38;5.25;;;;;;;16.65;70.75;96022.38;5116032;28;20264;-74
2021/08/12 03:49:38;;;;;;;7.65;5.22;;;;;;;16.66;70.90;96023.19;5116334;27;20217;-75
2021/08/12 03:52:04;;;;;;;5.63;5.10;;;;;;;16.64;70.76;96025.97;5099868;27;20167;-74
2021/08/12 03:54:30;;;;;;;6.82;5.50;;;;;;;16.64;70.64;96025.97;5135194;27;20352;-75
2021/08/12 03:56:55;;;;;;;5.63;4.88;;;;;;;16.70;70.26;96027.94;5117136;27;20210;-75
2021/08/12 03:59:23;;;;;;;7.38;5.20;;;;;;;16.76;69.79;96021.16;5116969;27;20175;-75
2021/08/12 04:01:49;;;;;;;6.78;5.38;;;;;;;16.82;69.84;96032.78;5099746;27;20172;-75
2021/08/12 04:04:14;;;;;;;8.55;5.65;;;;;;;16.78;69.91;96029.69;5116718;27;20591;-76
2021/08/12 04:06:39;;;;;;;7.28;4.82;;;;;;;16.79;70.12;96031.34;5116788;27;20191;-75
2021/08/12 04:09:05;;;;;;;8.57;5.38;;;;;;;16.82;69.76;96038.84;5116640;27;20168;-75
2021/08/12 04:11:30;;;;;;;7.50;5.60;;;;;;;16.88;69.43;96032.91;5116548;27;20179;-75
2021/08/12 04:13:55;;;;;;;6.15;5.13;;;;;;;16.89;69.49;96029.28;5134967;27;20163;-75
2021/08/12 04:16:20;;;;;;;6.22;5.10;;;;;;;16.99;69.16;96029.06;5116525;27;20202;-75
2021/08/12 04:18:46;;;;;;;6.70;4.80;;;;;;;17.02;68.94;96023.44;5099515;27;20815;-75
2021/08/12 04:21:11;;;;;;;6.32;5.38;;;;;;;17.08;68.70;96021.94;5116452;27;20198;-75
2021/08/12 04:23:36;;;;;;;6.07;5.15;;;;;;;17.10;68.87;96025.19;5099369;27;20553;-75
2021/08/12 04:26:02;;;;;;;8.43;5.53;;;;;;;17.16;68.40;96016.63;5116600;27;20538;-75
2021/08/12 04:28:27;;;;;;;6.07;4.88;;;;;;;17.24;68.50;96021.81;5116267;27;20167;-75
2021/08/12 04:30:52;;;;;;;7.63;5.05;;;;;;;17.25;68.30;96011.13;5116455;27;20635;-75
2021/08/12 04:33:18;;;;;;;8.25;5.03;;;;;;;17.30;68.21;96007.94;5098774;27;20179;-75
2021/08/12 04:35:44;;;;;;;5.95;4.80;;;;;;;17.45;67.70;96008.00;5134498;27;20195;-74
2021/08/12 04:38:10;;;;;;;6.50;4.95;;;;;;;17.49;67.38;96017.13;5134623;27;20817;-75
2021/08/12 04:40:35;;;;;;;7.72;5.25;;;;;;;17.51;67.65;96013.34;5099213;27;20259;-74
2021/08/12 04:43:00;;;;;;;8.82;5.28;;;;;;;17.61;67.33;96012.28;5098806;27;20255;-75
2021/08/12 04:45:27;;;;;;;9.07;5.32;;;;;;;17.63;67.10;96013.72;5116021;27;20258;-75
2021/08/12 04:48:06;;;;;;;5.72;4.45;;;;;;;17.79;66.44;96012.75;5099450;27;20702;-75
2021/08/12 04:50:33;;;;;;;8.32;5.95;;;;;;;17.82;66.11;96012.41;5115864;27;20166;-75
2021/08/12 04:52:59;;;;;;;6.75;5.00;;;;;;;17.85;65.88;96008.63;5116028;27;20225;-75
2021/08/12 04:55:24;;;;;;;6.30;4.90;;;;;;;17.91;65.65;96015.75;5098473;27;20203;-75
2021/08/12 04:57:49;;;;;;;7.15;4.78;;;;;;;18.02;65.26;96026.63;5098665;27;20608;-75
2021/08/12 05:00:15;;;;;;;6.18;5.03;;;;;;;18.08;64.81;96019.81;5115183;27;20163;-75
2021/08/12 05:02:41;;;;;;;6.13;4.25;;;;;;;18.29;64.61;96019.91;5115549;27;20171;-75
2021/08/12 05:05:07;;;;;;;6.32;5.10;;;;;;;18.34;64.19;96028.03;5115894;27;20642;-75
2021/08/12 05:07:32;;;;;;;4.82;4.30;;;;;;;18.57;63.40;96029.72;5133644;27;20757;-76
2021/08/12 05:09:58;;;;;;;5.90;5.25;;;;;;;18.75;62.69;96029.34;5115737;27;20270;-75
2021/08/12 05:12:24;;;;;;;5.20;4.70;;;;;;;18.78;62.95;96027.16;5115589;27;20172;-75
2021/08/12 05:14:49;;;;;;;7.85;5.68;;;;;;;18.88;62.50;96032.91;5126087;27;20207;-74
2021/08/12 05:17:14;;;;;;;6.97;4.68;;;;;;;18.91;62.15;96029.91;5097078;27;20203;-74
2021/08/12 05:19:40;;;;;;;6.20;5.10;;;;;;;19.04;61.59;96026.59;5115273;27;20688;-75
2021/08/12 05:22:06;;;;;;;6.45;4.40;;;;;;;19.19;61.18;96035.25;5115152;27;20258;-75
2021/08/12 05:24:31;;;;;;;7.18;4.95;;;;;;;19.38;60.61;96032.97;5115164;27;20263;-75
2021/08/12 05:26:57;;;;;;;6.05;5.13;;;;;;;19.32;60.41;96034.53;5115250;27;20186;-74
2021/08/12 05:29:22;;;;;;;6.10;4.38;;;;;;;19.49;59.96;96035.88;5132957;27;20195;-74
2021/08/12 05:31:47;;;;;;;6.78;4.75;;;;;;;19.67;59.89;96032.81;5133089;27;20195;-74
2021/08/12 05:34:12;;;;;;;5.18;4.68;;;;;;;19.67;59.49;96042.53;5128967;27;20696;-74
2021/08/12 05:36:38;;;;;;;4.55;4.10;;;;;;;19.63;59.53;96050.00;5132862;27;20191;-74
2021/08/12 05:39:03;;;;;;;5.88;5.00;;;;;;;19.58;59.43;96054.22;5114825;27;20215;-73
2021/08/12 05:41:28;;;;;;;7.63;4.60;;;;;;;19.31;60.25;96053.16;5132822;27;20184;-74
2021/08/12 05:43:54;;;;;;;5.75;4.70;;;;;;;19.44;59.71;96048.00;5114809;27;20243;-75
2021/08/12 05:46:19;;;;;;;6.20;4.97;;;;;;;19.42;60.04;96050.81;5132806;27;20195;-74
2021/08/12 05:48:44;;;;;;;4.97;4.22;;;;;;;19.71;58.82;96046.41;5133119;27;20171;-74
2021/08/12 05:51:09;;;;;;;5.50;4.90;;;;;;;19.51;59.59;96035.69;5114412;27;20182;-74
2021/08/12 05:53:35;;;;;;;5.95;4.75;;;;;;;19.63;58.79;96042.09;5132603;27;20179;-75
2021/08/12 05:56:02;;;;;;;6.72;4.57;;;;;;;19.83;58.32;96042.22;5132701;27;20215;-75
2021/08/12 05:58:27;;;;;;;7.47;5.10;;;;;;;19.91;58.48;96042.09;5148477;27;20667;-75
2021/08/12 06:00:52;;;;;;;7.15;4.90;;;;;;;20.02;58.31;96031.00;5135229;27;20175;-74
2021/08/12 06:03:18;;;;;;;5.03;4.53;;;;;;;20.25;57.61;96035.19;5153276;27;20171;-74
2021/08/12 06:05:43;;;;;;;7.25;4.55;;;;;;;20.36;57.59;96031.97;5153533;27;20205;-74
2021/08/12 06:08:11;;;;;;;6.50;5.10;;;;;;;20.62;57.11;96037.38;5099392;28;20190;-74
2021/08/12 06:10:37;;;;;;;7.20;5.35;;;;;;;20.79;56.53;96037.03;5099230;28;20171;-74
2021/08/12 06:13:02;;;;;;;6.97;5.10;;;;;;;21.10;56.00;96045.19;5093404;28;20643;-74
2021/08/12 06:15:29;;;;;;;6.20;4.90;;;;;;;21.40;55.45;96040.41;5077021;28;20211;-73
2021/08/12 06:17:55;;;;;;;5.95;5.40;;;;;;;21.67;54.34;96035.91;5112043;28;20171;-75
2021/08/12 06:20:21;;;;;;;6.35;4.70;;;;;;;22.61;52.14;96037.28;5077037;28;20643;-75
2021/08/12 06:22:47;;;;;;;5.85;4.40;;;;;;;23.51;49.48;96047.78;5093800;28;20195;-74
2021/08/12 06:25:13;;;;;;;7.93;4.72;;;;;;;25.00;45.92;96047.44;5077365;28;20167;-75
2021/08/12 06:27:39;;;;;;;6.13;4.40;;;;;;;25.51;43.66;96043.41;5111981;28;20192;-74
2021/08/12 06:30:09;;;;;;;5.60;4.28;;;;;;;24.51;45.94;96048.47;5076833;28;20183;-75
2021/08/12 06:32:34;;;;;;;6.28;4.75;;;;;;;25.08;44.58;96055.09;5107280;28;20198;-74
2021/08/12 06:35:00;;;;;;;7.70;4.30;;;;;;;25.16;44.67;96058.47;5095879;28;20281;-76
2021/08/12 06:37:26;;;;;;;5.18;4.68;;;;;;;24.62;46.27;96061.00;5114078;28;20190;-76
2021/08/12 06:39:51;;;;;;;5.60;4.68;;;;;;;25.88;43.83;96061.88;5096995;28;20186;-75
2021/08/12 06:42:17;;;;;;;4.88;4.38;;;;;;;25.91;42.90;96059.56;5113737;28;20171;-74
2021/08/12 06:44:42;;;;;;;6.18;4.78;;;;;;;25.84;43.42;96058.88;5132217;28;20179;-75
2021/08/12 06:47:08;;;;;;;4.97;4.47;;;;;;;24.87;45.15;96066.22;5113967;28;20255;-75
2021/08/12 06:49:33;;;;;;;5.55;4.93;;;;;;;24.55;46.57;96068.22;5132215;28;20222;-75
2021/08/12 06:51:58;;;;;;;7.05;4.50;;;;;;;24.36;46.92;96062.13;5132229;28;20650;-76
2021/08/12 06:54:24;;;;;;;5.22;4.72;;;;;;;25.55;44.54;96068.53;5132629;28;20191;-75
2021/08/12 06:56:49;;;;;;;5.65;4.68;;;;;;;26.02;43.46;96068.59;5113523;28;20327;-75
2021/08/12 06:59:14;;;;;;;5.80;5.20;;;;;;;26.17;43.35;96065.47;5114029;28;20175;-75
2021/08/12 07:01:39;;;;;;;5.28;4.60;;;;;;;26.86;41.88;96065.56;5131931;28;20218;-75
2021/08/12 07:04:05;;;;;;;7.90;4.78;;;;;;;26.89;40.73;96067.75;5132055;28;20714;-74
2021/08/12 07:06:30;;;;;;;5.93;4.82;;;;;;;27.17;40.73;96059.78;5113768;28;20278;-76
2021/08/12 07:08:57;;;;;;;4.93;4.43;;;;;;;27.87;39.12;96061.25;5113993;28;20213;-75
2021/08/12 07:11:23;;;;;;;6.03;4.50;;;;;;;28.22;38.45;96068.97;5113197;28;20168;-75
2021/08/12 07:13:49;;;;;;;5.15;4.65;;;;;;;28.64;37.43;96061.25;5113692;28;20542;-75
2021/08/12 07:16:15;;;;;;;6.88;5.10;;;;;;;28.36;37.80;96069.44;5113881;28;20187;-75
2021/08/12 07:18:44;;;;;;;5.45;4.40;;;;;;;29.11;36.40;96071.44;5113756;28;20175;-75
2021/08/12 07:21:16;;;;;;;5.20;4.80;;;;;;;29.17;36.62;96070.44;5096684;28;20243;-75
2021/08/12 07:23:42;;;;;;;6.80;4.63;;;;;;;29.44;35.78;96073.09;5099735;27;20179;-76
2021/08/12 07:26:12;;;;;;;5.38;4.45;;;;;;;28.43;37.07;96076.22;5117483;27;20183;-74
2021/08/12 07:28:37;;;;;;;7.65;5.07;;;;;;;28.33;37.68;96073.41;5100630;27;20202;-75
2021/08/12 07:31:02;;;;;;;5.40;4.35;;;;;;;29.02;36.57;96072.94;5135782;27;20209;-74
2021/08/12 07:33:28;;;;;;;6.53;4.97;;;;;;;27.75;38.69;96069.34;5117127;27;20190;-74
2021/08/12 07:35:53;;;;;;;4.78;4.38;;;;;;;27.33;39.63;96056.34;5117276;27;20204;-75
2021/08/12 07:38:18;;;;;;;4.82;4.30;;;;;;;26.88;39.75;96058.97;5135617;27;20281;-75
2021/08/12 07:40:44;;;;;;;7.50;4.75;;;;;;;26.81;39.44;96061.75;5135785;27;20551;-76
2021/08/12 07:43:09;;;;;;;5.55;4.95;;;;;;;26.53;41.58;96065.22;5116869;27;20173;-75
2021/08/12 07:45:35;;;;;;;5.22;4.75;;;;;;;26.38;42.05;96064.88;5100111;27;20226;-77
2021/08/12 07:48:00;;;;;;;9.85;4.68;;;;;;;26.03;41.81;96058.75;5135273;27;20221;-75
2021/08/12 07:50:25;;;;;;;5.78;5.05;;;;;;;25.38;44.94;96062.25;5099904;27;20175;-76
2021/08/12 07:52:54;;;;;;;6.70;4.93;;;;;;;24.94;44.67;96058.97;5099578;27;20542;-76
2021/08/12 07:55:20;;;;;;;6.28;4.90;;;;;;;25.02;45.10;96065.81;5116912;27;20207;-76
2021/08/12 07:57:46;;;;;;;7.60;5.20;;;;;;;25.02;45.64;96066.66;5117128;27;20179;-76
2021/08/12 08:00:12;;;;;;;7.85;5.20;;;;;;;25.22;44.23;96070.88;5117051;27;20174;-75
2021/08/12 08:02:44;;;;;;;6.00;5.05;;;;;;;25.51;45.27;96071.84;5134779;27;20171;-77
2021/08/12 08:05:13;;;;;;;5.90;5.03;;;;;;;25.40;45.32;96066.28;5099714;27;20187;-76
2021/08/12 08:07:39;;;;;;;4.80;4.40;;;;;;;25.04;45.73;96059.25;5116634;27;20688;-75
2021/08/12 08:10:05;;;;;;;5.05;4.57;;;;;;;25.52;44.87;96061.00;5134855;27;20171;-76
2021/08/12 08:12:31;;;;;;;7.38;5.43;;;;;;;25.47;45.52;96060.06;5116490;27;20225;-76
2021/08/12 08:14:56;;;;;;;5.35;4.28;;;;;;;25.72;45.13;96052.75;5135037;27;20678;-75
2021/08/12 08:17:21;;;;;;;6.03;5.35;;;;;;;25.48;45.57;96053.72;5099592;27;20254;-77
2021/08/12 08:19:47;;;;;;;5.13;4.60;;;;;;;25.91;44.91;96064.09;5134753;27;20227;-75
2021/08/12 08:22:12;;;;;;;5.95;4.75;;;;;;;25.61;45.92;96067.59;5118171;27;20172;-75
2021/08/12 08:24:37;;;;;;;6.13;4.90;;;;;;;25.78;44.74;96058.97;5134687;27;20199;-77
2021/08/12 08:27:03;;;;;;;6.13;5.07;;;;;;;25.86;44.85;96061.28;5116149;27;20274;-75
2021/08/12 08:29:28;;;;;;;7.05;4.88;;;;;;;25.93;45.38;96056.69;5116384;27;20239;-75
2021/08/12 08:31:53;;;;;;;5.75;4.45;;;;;;;25.83;44.88;96062.56;5133805;27;20179;-75
2021/08/12 08:34:19;;;;;;;9.25;4.53;;;;;;;25.68;46.52;96060.31;5112624;27;20223;-76
2021/08/12 08:36:44;;;;;;;4.35;3.95;;;;;;;25.77;46.48;96055.50;5132504;27;20187;-77
2021/08/12 08:39:10;;;;;;;6.28;5.28;;;;;;;25.70;46.37;96062.75;5131646;27;20179;-75
2021/08/12 08:41:36;;;;;;;5.40;4.90;;;;;;;25.95;45.67;96059.91;5132910;27;20179;-77
2021/08/12 08:44:02;;;;;;;5.93;4.72;;;;;;;25.79;46.51;96068.56;5132996;27;20171;-76
2021/08/12 08:46:27;;;;;;;5.32;4.82;;;;;;;25.77;46.66;96063.47;5132829;27;20286;-75
2021/08/12 08:48:57;;;;;;;5.88;4.80;;;;;;;25.96;45.82;96070.31;5115583;27;20171;-76
2021/08/12 08:51:22;;;;;;;7.55;5.05;;;;;;;25.71;46.94;96059.09;5132423;27;20200;-76
2021/08/12 08:53:48;;;;;;;5.18;4.68;;;;;;;26.02;46.16;96060.59;5118628;27;20187;-76
2021/08/12 08:56:16;;;;;;;6.97;4.68;;;;;;;26.04;44.84;96055.03;5115437;27;20213;-77
2021/08/12 08:58:41;;;;;;;8.05;4.60;;;;;;;26.49;44.45;96061.38;5115768;27;20179;-76
2021/08/12 09:01:06;;;;;;;5.47;4.95;;;;;;;26.37;45.04;96065.91;5115800;27;20204;-77
2021/08/12 09:03:32;;;;;;;7.07;5.22;;;;;;;26.44;44.47;96063.16;5115606;27;20254;-75
2021/08/12 09:05:57;;;;;;;5.55;5.05;;;;;;;26.51;44.88;96059.31;5115277;27;20191;-76
2021/08/12 09:08:22;;;;;;;5.75;5.25;;;;;;;26.74;42.74;96057.59;5133918;27;20707;-77
2021/08/12 09:10:48;;;;;;;6.15;5.25;;;;;;;26.74;44.10;96057.59;5115353;27;20172;-76
2021/08/12 09:13:13;;;;;;;5.65;5.05;;;;;;;26.31;44.23;96058.03;5115539;27;20221;-76
2021/08/12 09:15:40;;;;;;;8.82;5.53;;;;;;;26.81;44.86;96055.63;5133468;27;20218;-76
2021/08/12 09:18:22;;;;;;;7.97;5.47;;;;;;;26.75;43.42;96054.72;5115487;27;20180;-75
2021/08/12 09:20:49;;;;;;;7.68;6.07;;;;;;;26.41;44.89;96056.41;5097995;27;20236;-76
2021/08/12 09:23:15;;;;;;;7.50;5.55;;;;;;;26.11;45.52;96056.56;5115170;27;20261;-76
2021/08/12 09:25:48;;;;;;;7.03;5.40;;;;;;;26.51;46.30;96058.50;5097847;27;20234;-77
2021/08/12 09:28:15;;;;;;;6.28;5.68;;;;;;;26.74;46.76;96058.41;5098741;27;20631;-75
2021/08/12 09:30:45;;;;;;;7.50;5.35;;;;;;;26.74;46.08;96060.28;5133460;27;20173;-75
2021/08/12 09:33:18;;;;;;;8.00;5.25;;;;;;;26.50;46.61;96060.34;5097530;27;20270;-75
2021/08/12 09:35:43;;;;;;;6.70;5.70;;;;;;;26.26;47.86;96056.09;5132787;27;20690;-75
2021/08/12 09:38:14;;;;;;;6.10;5.50;;;;;;;26.68;46.21;96059.38;5133209;27;20258;-75
2021/08/12 09:40:40;;;;;;;5.72;5.22;;;;;;;26.91;45.69;96055.00;5097686;27;20186;-76
2021/08/12 09:43:07;;;;;;;7.00;5.70;;;;;;;26.73;45.45;96056.81;5094788;27;20180;-75
2021/08/12 09:45:34;;;;;;;6.32;5.50;;;;;;;26.49;45.12;96061.38;5093928;28;20172;-77
2021/08/12 09:48:19;;;;;;;6.32;5.60;;;;;;;26.63;45.06;96061.13;5094262;28;20598;-76
2021/08/12 09:50:59;;;;;;;6.88;5.82;;;;;;;26.12;46.79;96058.16;5094288;28;20232;-76
2021/08/12 09:53:24;;;;;;;7.97;5.57;;;;;;;26.46;46.51;96058.38;5111113;28;20199;-76
2021/08/12 09:55:51;;;;;;;6.43;5.82;;;;;;;26.80;46.85;96056.69;5111078;28;20242;-77
2021/08/12 09:58:18;;;;;;;5.78;5.18;;;;;;;26.77;45.93;96062.50;5107560;27;20174;-76
2021/08/12 10:00:48;;;;;;;6.43;5.72;;;;;;;26.83;46.00;96062.31;5115027;27;20232;-76
2021/08/12 10:03:22;;;;;;;9.52;5.82;;;;;;;27.22;44.75;96059.91;5132698;27;20199;-75
2021/08/12 10:05:48;;;;;;;7.63;5.47;;;;;;;27.19;45.66;96056.88;5133034;27;20549;-76
2021/08/12 10:08:28;;;;;;;6.50;5.57;;;;;;;27.41;42.63;96052.47;5096836;28;20175;-76
2021/08/12 10:10:54;;;;;;;6.32;5.72;;;;;;;27.21;43.80;96050.28;5113067;27;20257;-76
2021/08/12 10:13:20;;;;;;;6.68;5.07;;;;;;;27.31;43.65;96053.13;5097027;27;20261;-75
2021/08/12 10:15:49;;;;;;;7.70;6.20;;;;;;;27.40;42.96;96053.53;5114053;27;20278;-75
2021/08/12 10:18:16;;;;;;;6.43;5.82;;;;;;;27.56;43.27;96054.56;5097816;28;20654;-75
2021/08/12 10:20:43;;;;;;;6.68;5.80;;;;;;;28.02;41.73;96053.47;5097153;28;20341;-75
2021/08/12 10:23:09;;;;;;;8.07;5.95;;;;;;;27.61;41.68;96057.34;5113781;28;20183;-76
2021/08/12 10:25:34;;;;;;;8.48;6.20;;;;;;;27.53;42.86;96052.41;5113898;28;20212;-75
2021/08/12 10:28:08;;;;;;;7.13;5.88;;;;;;;27.55;42.94;96051.09;5097617;28;20167;-76
2021/08/12 10:30:35;;;;;;;6.88;6.15;;;;;;;27.99;39.81;96051.28;5114331;28;20204;-76
2021/08/12 10:33:02;;;;;;;6.40;5.80;;;;;;;28.15;37.39;96041.63;5113951;28;20170;-76
2021/08/12 10:35:30;;;;;;;7.40;6.40;;;;;;;28.04;38.71;96046.00;5134233;28;20191;-76
2021/08/12 10:37:56;;;;;;;6.72;6.13;;;;;;;27.78;39.99;96050.16;5104024;28;20206;-77
2021/08/12 10:40:23;;;;;;;6.47;5.90;;;;;;;27.96;40.76;96049.09;5100428;28;20542;-76
2021/08/12 10:42:48;;;;;;;9.57;6.13;;;;;;;27.93;40.89;96039.72;5116415;28;20177;-76
2021/08/12 10:45:18;;;;;;;7.82;6.53;;;;;;;28.01;41.76;96045.72;5115409;28;20254;-76
2021/08/12 10:47:51;;;;;;;8.00;5.80;;;;;;;28.00;41.75;96038.72;5114269;28;20239;-74
2021/08/12 10:50:22;;;;;;;6.85;6.13;;;;;;;28.13;40.73;96043.72;5097624;28;20266;-74
2021/08/12 10:53:04;;;;;;;6.95;6.28;;;;;;;28.12;39.25;96040.25;5132167;28;20258;-75
2021/08/12 10:55:30;;;;;;;7.43;6.63;;;;;;;27.71;38.85;96038.84;5113714;28;20222;-75
2021/08/12 10:58:17;;;;;;;6.93;6.10;;;;;;;27.46;41.90;96033.88;5116158;27;20560;-75
2021/08/12 11:00:50;;;;;;;7.63;6.38;;;;;;;28.12;40.66;96034.13;5136278;27;20173;-74
2021/08/12 11:03:35;;;;;;;6.93;5.82;;;;;;;28.23;38.11;96031.31;5135968;27;20258;-76
2021/08/12 11:06:04;;;;;;;11.00;6.05;;;;;;;28.07;38.49;96031.34;5135888;27;20734;-74
2021/08/12 11:08:54;;;;;;;9.90;7.47;;;;;;;28.12;38.15;96031.44;5136028;27;20217;-76
2021/08/12 11:11:22;;;;;;;8.23;7.25;;;;;;;28.16;39.36;96024.53;5115202;27;20189;-74
2021/08/12 11:13:49;;;;;;;10.10;8.25;;;;;;;28.24;39.05;96032.13;5135793;27;20179;-75
2021/08/12 11:16:15;;;;;;;5.97;5.45;;;;;;;28.20;38.77;96031.03;5100471;27;20207;-75
2021/08/12 11:18:54;;;;;;;6.72;6.13;;;;;;;28.40;38.95;96030.50;5100489;27;20549;-75
2021/08/12 11:21:29;;;;;;;9.00;6.72;;;;;;;28.40;37.57;96028.63;5117216;27;20166;-75
2021/08/12 11:23:55;;;;;;;6.95;6.25;;;;;;;27.93;40.18;96031.72;5135845;27;20174;-75
2021/08/12 11:26:20;;;;;;;7.45;6.32;;;;;;;27.69;39.31;96024.13;5117436;27;20731;-75
2021/08/12 11:28:45;;;;;;;7.00;6.03;;;;;;;28.02;40.08;96026.78;5117376;27;20193;-74
2021/08/12 11:31:19;;;;;;;6.73;6.03;;;;;;;28.55;38.56;96025.34;5135696;27;20175;-75
2021/08/12 11:33:48;;;;;;;7.85;7.13;;;;;;;28.33;39.49;96021.84;5117095;27;20432;-75